Lake Worth, FL

4:18 PM EDT on April 18, 2015 (GMT -0400)
Island Estates | | Change Station
CLOSE
Current Station
Personal Weather Station
Location: Lantana, FL
Elevation: 45 ft
Nearby Weather Stations

Elev 45 ft 26.57 °N, 80.08 °W | Updated 3 minutes ago

Partly Cloudy
Partly Cloudy
87.1 °F
Feels Like 93 °F
N
9.0
Wind Variable Wind from SSE
Gusts 12.0 mph

Today
High -- | Low -- °F
--% Chance of Precip.
Yesterday
High -- | Low -- °F
Precip. -- in
6:54 AM 7:45 PM
New Moon, 0% visible
Pressure 29.92 in
Visibility 10.0 miles
Clouds Few 4000 ft
Mostly Cloudy 5000 ft
Mostly Cloudy 25000 ft
Heat Index 93 °F
Dew Point 71 °F
Humidity 59%
Rainfall 0.00 in
Snow Depth Not available.
UV 5 out of 12
Pollen 5.30 out of 12
Air Quality Not available.
Flu Activity Local Activity
METAR KPBI 181953Z 14008KT 10SM FEW040 BKN050 BKN250 31/20 A2992 RMK AO2 SLP132 T03110200 $

More Conditions Fewer Conditions

Pressure 29.92 in
Visibility 10.0 miles
Clouds Few 4000 ft
Mostly Cloudy 5000 ft
Mostly Cloudy 25000 ft
Heat Index 93 °F
Dew Point 71 °F
Humidity 59%
Rainfall 0.00 in
Snow Depth Not available.
UV 5 out of 12
Pollen 5.30 out of 12
Air Quality Not available.
Flu Activity Local Activity
METAR KPBI 181953Z 14008KT 10SM FEW040 BKN050 BKN250 31/20 A2992 RMK AO2 SLP132 T03110200 $

More Conditions Fewer Conditions

Nowcast | as of 2:50 PM EDT on April 18, 2015

A few showers were developing across northern Collier and western Hendry counties this afternoon. Movement is to the east at 5 to 10 mph. Additional development will occur for the remainder of this afternoon with a few thunderstorms also expected with occasional lightning strikes and gusty winds to around 40-45 mph. By late this afternoon, scattered thunderstorms could begin to affect much of the interior and the East Coast Metro area of South Florida persisting into the early evening hours.

×

10-Day Weather Forecast

Almanac

Astronomy

Apr. 18, 2015 Rise Set
Actual Time
Civil Twilight
Nautical Twilight
Astronomical Twilight
Moon
Length of Visible Light
Length of Day
Tomorrow will be .
, % of the Moon is Illuminated

Today's Extremes

State Highs State Lows

Community

WunderPhotos

Upload Photos

1,814,513 photos uploaded!

WunderBlogs® & News

Nearby

Air Quality

  Air Quality AQ Index Pollutant
Not available.

Snow Depth

Station Depth Elevation

Earthquake Activity

City Distance Mag. Time & Date
Minimum magnitude displayed is 2.5.

Coastal Water Temperatures

Place Temperature

Stations

Nearby Weather Stations

Station Location Temp. Windchill Dew Point Humidity Wind Precip. Elev Updated Type